Shonkin, Montana
Current Conditions -  °F | °C
As of 4:56 AM on Wednesday 28 Jan 2015 (Local Time) from KGFA Reporting Station
Broken Clouds Broken Clouds  
Wind Chill: 42°   Ceiling: 21000
Heat Index: 47°   Visibility: 10mi
Dew Point: 24°   Wind: 12mph
Humidity: 40%   Direction: 260°W
Pressure: 30.01"   Gusts: NA
Location:  47.5922°N, 110.795°W
Report Text: KGFA 281156Z AUTO 26010KT 10SM BKN210 09/M04 A3001 RMK AO2 SLP170 T00861045 10098 20059 52029
Loading
Personal Weather Stations






























Interactive Weather Map New forecast layout! Learn more

10-Day Weather Forecast

Advertisements
Track Severe Weather on mobile